PWSweather.com
Personal Weather Stations
Station Observations
KMIEASTT1
Tawas Bay, East Tawas, MI 48730

Tawas BayEast Tawas, MI 48730

Lat: 44.28, Lon: -83.48

Elevation: 600

Station Type: Davis VantagePro

http://www.tawasbayweather.com

High Low Average
Temperature 30.8°F-0.7°C 15.1°F-9.4°C 23.5°F-4.7°C
Dew Point 26.1°F-3.3°C 12.0°F-11.1°C 18.6°F-7.4°C
Winds 20.0 mph 32.2 kmh Calm Calm 7.0 mph SW11.3 kmh SW
Wind Gusts 24.0 mph38.6 kmh -- 9.0 mph14.5 kmh
Humidity 88% 71% 81%
Pressure 30.43 in1030.5 mb 30.17 in1021.7 mb -
Precipitation 0.00 in0.0 mm - -
Hour Temp Dew Point Humidity Winds Wind Gusts Pressure Precip Precip Rate Daily Precip Total
12:02 AM 20.7°F-6.3°C 14.6°F-9.7°C 77% Calm Calm -- 30.34 in1027.4 mb 0.00 in0.0 mm 0.00 in/hr0.0 mm/hr 0.00 in0.0 mm
12:17 AM 20.4°F-6.4°C 13.8°F-10.1°C 75% Calm Calm 1.0 mph1.6 kmh 30.34 in1027.4 mb 0.00 in0.0 mm 0.00 in/hr0.0 mm/hr 0.00 in0.0 mm
12:31 AM 18.9°F-7.3°C 13.5°F-10.3°C 79% 1.0 mph NW1.6 kmh NW 1.0 mph1.6 kmh 30.35 in1027.8 mb 0.00 in0.0 mm 0.00 in/hr0.0 mm/hr 0.00 in0.0 mm
12:45 AM 18.5°F-7.5°C 13.1°F-10.5°C 79% 1.0 mph NW1.6 kmh NW 2.0 mph3.2 kmh 30.36 in1028.1 mb 0.00 in0.0 mm 0.00 in/hr0.0 mm/hr 0.00 in0.0 mm
01:01 AM 18.0°F-7.8°C 13.2°F-10.4°C 81% 1.0 mph NW1.6 kmh NW 2.0 mph3.2 kmh 30.37 in1028.4 mb 0.00 in0.0 mm 0.00 in/hr0.0 mm/hr 0.00 in0.0 mm
01:16 AM 18.4°F-7.6°C 13.8°F-10.1°C 82% Calm Calm 2.0 mph3.2 kmh 30.37 in1028.4 mb 0.00 in0.0 mm 0.00 in/hr0.0 mm/hr 0.00 in0.0 mm
01:31 AM 19.4°F-7.0°C 14.8°F-9.6°C 82% 1.0 mph NW1.6 kmh NW 2.0 mph3.2 kmh 30.38 in1028.8 mb 0.00 in0.0 mm 0.00 in/hr0.0 mm/hr 0.00 in0.0 mm
01:46 AM 20.2°F-6.6°C 15.0°F-9.4°C 80% 1.0 mph NW1.6 kmh NW 2.0 mph3.2 kmh 30.39 in1029.1 mb 0.00 in0.0 mm 0.00 in/hr0.0 mm/hr 0.00 in0.0 mm
02:00 AM 20.3°F-6.5°C 14.8°F-9.6°C 79% 1.0 mph NW1.6 kmh NW 1.0 mph1.6 kmh 30.39 in1029.1 mb 0.00 in0.0 mm 0.00 in/hr0.0 mm/hr 0.00 in0.0 mm
02:15 AM 20.0°F-6.7°C 14.6°F-9.7°C 79% Calm Calm -- 30.40 in1029.5 mb 0.00 in0.0 mm 0.00 in/hr0.0 mm/hr 0.00 in0.0 mm
02:31 AM 17.9°F-7.8°C 12.8°F-10.7°C 80% Calm Calm -- 30.40 in1029.5 mb 0.00 in0.0 mm 0.00 in/hr0.0 mm/hr 0.00 in0.0 mm
02:45 AM 17.3°F-8.2°C 12.8°F-10.7°C 82% 1.0 mph NW1.6 kmh NW 2.0 mph3.2 kmh 30.41 in1029.8 mb 0.00 in0.0 mm 0.00 in/hr0.0 mm/hr 0.00 in0.0 mm
03:03 AM 16.2°F-8.8°C 12.2°F-11.0°C 84% 1.0 mph NW1.6 kmh NW 2.0 mph3.2 kmh 30.41 in1029.8 mb 0.00 in0.0 mm 0.00 in/hr0.0 mm/hr 0.00 in0.0 mm
03:16 AM 15.7°F-9.1°C 12.0°F-11.1°C 85% Calm Calm 2.0 mph3.2 kmh 30.40 in1029.5 mb 0.00 in0.0 mm 0.00 in/hr0.0 mm/hr 0.00 in0.0 mm
03:31 AM 15.4°F-9.2°C 12.0°F-11.1°C 86% 2.0 mph NW3.2 kmh NW 2.0 mph3.2 kmh 30.41 in1029.8 mb 0.00 in0.0 mm 0.00 in/hr0.0 mm/hr 0.00 in0.0 mm
03:46 AM 15.3°F-9.3°C 12.1°F-11.1°C 87% 2.0 mph NW3.2 kmh NW 2.0 mph3.2 kmh 30.42 in1030.1 mb 0.00 in0.0 mm 0.00 in/hr0.0 mm/hr 0.00 in0.0 mm
04:03 AM 16.1°F-8.8°C 13.2°F-10.4°C 88% 1.0 mph NW1.6 kmh NW 2.0 mph3.2 kmh 30.41 in1029.8 mb 0.00 in0.0 mm 0.00 in/hr0.0 mm/hr 0.00 in0.0 mm
04:16 AM 16.7°F-8.5°C 13.5°F-10.3°C 87% 1.0 mph NW1.6 kmh NW 2.0 mph3.2 kmh 30.40 in1029.5 mb 0.00 in0.0 mm 0.00 in/hr0.0 mm/hr 0.00 in0.0 mm
04:31 AM 17.3°F-8.2°C 14.1°F-9.9°C 87% Calm Calm 1.0 mph1.6 kmh 30.40 in1029.5 mb 0.00 in0.0 mm 0.00 in/hr0.0 mm/hr 0.00 in0.0 mm
04:45 AM 17.2°F-8.2°C 13.2°F-10.4°C 84% 1.0 mph NW1.6 kmh NW 1.0 mph1.6 kmh 30.41 in1029.8 mb 0.00 in0.0 mm 0.00 in/hr0.0 mm/hr 0.00 in0.0 mm
05:02 AM 17.8°F-7.9°C 14.3°F-9.8°C 86% 1.0 mph NW1.6 kmh NW 1.0 mph1.6 kmh 30.42 in1030.1 mb 0.00 in0.0 mm 0.00 in/hr0.0 mm/hr 0.00 in0.0 mm
05:16 AM 18.5°F-7.5°C 15.0°F-9.4°C 86% 2.0 mph NW3.2 kmh NW 3.0 mph4.8 kmh 30.43 in1030.5 mb 0.00 in0.0 mm 0.00 in/hr0.0 mm/hr 0.00 in0.0 mm
05:31 AM 18.7°F-7.4°C 15.0°F-9.4°C 85% 1.0 mph NW1.6 kmh NW 1.0 mph1.6 kmh 30.42 in1030.1 mb 0.00 in0.0 mm 0.00 in/hr0.0 mm/hr 0.00 in0.0 mm
05:46 AM 18.8°F-7.3°C 15.1°F-9.4°C 85% 1.0 mph NW1.6 kmh NW 2.0 mph3.2 kmh 30.41 in1029.8 mb 0.00 in0.0 mm 0.00 in/hr0.0 mm/hr 0.00 in0.0 mm
06:02 AM 18.1°F-7.7°C 14.1°F-9.9°C 84% 1.0 mph NW1.6 kmh NW 2.0 mph3.2 kmh 30.42 in1030.1 mb 0.00 in0.0 mm 0.00 in/hr0.0 mm/hr 0.00 in0.0 mm
06:16 AM 17.3°F-8.2°C 13.6°F-10.2°C 85% 2.0 mph N3.2 kmh N 3.0 mph4.8 kmh 30.42 in1030.1 mb 0.00 in0.0 mm 0.00 in/hr0.0 mm/hr 0.00 in0.0 mm
06:31 AM 16.4°F-8.7°C 13.0°F-10.6°C 86% 3.0 mph N4.8 kmh N 3.0 mph4.8 kmh 30.43 in1030.5 mb 0.00 in0.0 mm 0.00 in/hr0.0 mm/hr 0.00 in0.0 mm
06:46 AM 16.4°F-8.7°C 13.5°F-10.3°C 88% 1.0 mph N1.6 kmh N 3.0 mph4.8 kmh 30.42 in1030.1 mb 0.00 in0.0 mm 0.00 in/hr0.0 mm/hr 0.00 in0.0 mm
07:00 AM 16.0°F-8.9°C 12.8°F-10.7°C 87% 2.0 mph N3.2 kmh N 3.0 mph4.8 kmh 30.40 in1029.5 mb 0.00 in0.0 mm 0.00 in/hr0.0 mm/hr 0.00 in0.0 mm
07:16 AM 15.3°F-9.3°C 12.4°F-10.9°C 88% 2.0 mph N3.2 kmh N 3.0 mph4.8 kmh 30.40 in1029.5 mb 0.00 in0.0 mm 0.00 in/hr0.0 mm/hr 0.00 in0.0 mm
07:31 AM 15.1°F-9.4°C 12.2°F-11.0°C 88% 2.0 mph N3.2 kmh N 2.0 mph3.2 kmh 30.39 in1029.1 mb 0.00 in0.0 mm 0.00 in/hr0.0 mm/hr 0.00 in0.0 mm
07:46 AM 15.4°F-9.2°C 12.5°F-10.8°C 88% 2.0 mph N3.2 kmh N 3.0 mph4.8 kmh 30.40 in1029.5 mb 0.00 in0.0 mm 0.00 in/hr0.0 mm/hr 0.00 in0.0 mm
08:02 AM 16.2°F-8.8°C 13.0°F-10.6°C 87% 3.0 mph N4.8 kmh N 3.0 mph4.8 kmh 30.42 in1030.1 mb 0.00 in0.0 mm 0.00 in/hr0.0 mm/hr 0.00 in0.0 mm
08:16 AM 18.6°F-7.4°C 15.1°F-9.4°C 86% 2.0 mph N3.2 kmh N 3.0 mph4.8 kmh 30.42 in1030.1 mb 0.00 in0.0 mm 0.00 in/hr0.0 mm/hr 0.00 in0.0 mm
08:31 AM 20.9°F-6.2°C 16.3°F-8.7°C 82% 1.0 mph N1.6 kmh N 2.0 mph3.2 kmh 30.42 in1030.1 mb 0.00 in0.0 mm 0.00 in/hr0.0 mm/hr 0.00 in0.0 mm
08:46 AM 21.5°F-5.8°C 14.8°F-9.6°C 75% 1.0 mph E1.6 kmh E 3.0 mph4.8 kmh 30.41 in1029.8 mb 0.00 in0.0 mm 0.00 in/hr0.0 mm/hr 0.00 in0.0 mm
09:02 AM 22.0°F-5.6°C 18.2°F-7.7°C 85% 5.0 mph E8.0 kmh E 6.0 mph9.7 kmh 30.41 in1029.8 mb 0.00 in0.0 mm 0.00 in/hr0.0 mm/hr 0.00 in0.0 mm
09:17 AM 24.3°F-4.3°C 20.5°F-6.4°C 85% 8.0 mph SE12.9 kmh SE 9.0 mph14.5 kmh 30.41 in1029.8 mb 0.00 in0.0 mm 0.00 in/hr0.0 mm/hr 0.00 in0.0 mm
09:31 AM 25.6°F-3.6°C 21.2°F-6.0°C 83% 10.0 mph SE16.1 kmh SE 12.0 mph19.3 kmh 30.40 in1029.5 mb 0.00 in0.0 mm 0.00 in/hr0.0 mm/hr 0.00 in0.0 mm
09:46 AM 25.9°F-3.4°C 21.2°F-6.0°C 82% 10.0 mph SE16.1 kmh SE 13.0 mph20.9 kmh 30.41 in1029.8 mb 0.00 in0.0 mm 0.00 in/hr0.0 mm/hr 0.00 in0.0 mm
10:03 AM 27.0°F-2.8°C 21.4°F-5.9°C 79% 10.0 mph SSE16.1 kmh SSE 13.0 mph20.9 kmh 30.41 in1029.8 mb 0.00 in0.0 mm 0.00 in/hr0.0 mm/hr 0.00 in0.0 mm
10:15 AM 27.3°F-2.6°C 21.4°F-5.9°C 78% 11.0 mph SSE17.7 kmh SSE 14.0 mph22.5 kmh 30.40 in1029.5 mb 0.00 in0.0 mm 0.00 in/hr0.0 mm/hr 0.00 in0.0 mm
10:31 AM 27.4°F-2.6°C 22.1°F-5.5°C 80% 13.0 mph SSE20.9 kmh SSE 15.0 mph24.1 kmh 30.40 in1029.5 mb 0.00 in0.0 mm 0.00 in/hr0.0 mm/hr 0.00 in0.0 mm
10:47 AM 27.4°F-2.6°C 21.8°F-5.7°C 79% 12.0 mph S19.3 kmh S 14.0 mph22.5 kmh 30.40 in1029.5 mb 0.00 in0.0 mm 0.00 in/hr0.0 mm/hr 0.00 in0.0 mm
11:00 AM 27.7°F-2.4°C 22.9°F-5.1°C 82% 9.0 mph SSE14.5 kmh SSE 13.0 mph20.9 kmh 30.41 in1029.8 mb 0.00 in0.0 mm 0.00 in/hr0.0 mm/hr 0.00 in0.0 mm
11:16 AM 28.1°F-2.2°C 22.7°F-5.2°C 80% 9.0 mph SSE14.5 kmh SSE 12.0 mph19.3 kmh 30.41 in1029.8 mb 0.00 in0.0 mm 0.00 in/hr0.0 mm/hr 0.00 in0.0 mm
11:31 AM 28.5°F-1.9°C 22.5°F-5.3°C 78% 8.0 mph S12.9 kmh S 13.0 mph20.9 kmh 30.41 in1029.8 mb 0.00 in0.0 mm 0.00 in/hr0.0 mm/hr 0.00 in0.0 mm
11:46 AM 28.9°F-1.7°C 22.9°F-5.1°C 78% 13.0 mph S20.9 kmh S 14.0 mph22.5 kmh 30.40 in1029.5 mb 0.00 in0.0 mm 0.00 in/hr0.0 mm/hr 0.00 in0.0 mm
12:00 PM 28.8°F-1.8°C 23.4°F-4.8°C 80% 9.0 mph SSE14.5 kmh SSE 16.0 mph25.7 kmh 30.39 in1029.1 mb 0.00 in0.0 mm 0.00 in/hr0.0 mm/hr 0.00 in0.0 mm
12:16 PM 28.9°F-1.7°C 22.6°F-5.2°C 77% 13.0 mph S20.9 kmh S 15.0 mph24.1 kmh 30.40 in1029.5 mb 0.00 in0.0 mm 0.00 in/hr0.0 mm/hr 0.00 in0.0 mm
12:31 PM 28.9°F-1.7°C 22.3°F-5.4°C 76% 13.0 mph S20.9 kmh S 16.0 mph25.7 kmh 30.39 in1029.1 mb 0.00 in0.0 mm 0.00 in/hr0.0 mm/hr 0.00 in0.0 mm
12:46 PM 29.3°F-1.5°C 22.7°F-5.2°C 76% 11.0 mph S17.7 kmh S 14.0 mph22.5 kmh 30.38 in1028.8 mb 0.00 in0.0 mm 0.00 in/hr0.0 mm/hr 0.00 in0.0 mm
01:00 PM 29.5°F-1.4°C 22.6°F-5.2°C 75% 14.0 mph SSE22.5 kmh SSE 15.0 mph24.1 kmh 30.37 in1028.4 mb 0.00 in0.0 mm 0.00 in/hr0.0 mm/hr 0.00 in0.0 mm
01:16 PM 29.1°F-1.6°C 21.9°F-5.6°C 74% 14.0 mph SSE22.5 kmh SSE 16.0 mph25.7 kmh 30.34 in1027.4 mb 0.00 in0.0 mm 0.00 in/hr0.0 mm/hr 0.00 in0.0 mm
01:31 PM 29.6°F-1.3°C 22.4°F-5.3°C 74% 10.0 mph SSE16.1 kmh SSE 15.0 mph24.1 kmh 30.34 in1027.4 mb 0.00 in0.0 mm 0.00 in/hr0.0 mm/hr 0.00 in0.0 mm
01:46 PM 29.6°F-1.3°C 21.4°F-5.9°C 71% 14.0 mph SE22.5 kmh SE 16.0 mph25.7 kmh 30.33 in1027.1 mb 0.00 in0.0 mm 0.00 in/hr0.0 mm/hr 0.00 in0.0 mm
02:00 PM 29.6°F-1.3°C 23.0°F-5.0°C 76% 12.0 mph SE19.3 kmh SE 17.0 mph27.4 kmh 30.33 in1027.1 mb 0.00 in0.0 mm 0.00 in/hr0.0 mm/hr 0.00 in0.0 mm
02:16 PM 29.1°F-1.6°C 22.8°F-5.1°C 77% 16.0 mph SE25.7 kmh SE 17.0 mph27.4 kmh 30.32 in1026.8 mb 0.00 in0.0 mm 0.00 in/hr0.0 mm/hr 0.00 in0.0 mm
02:31 PM 29.6°F-1.3°C 23.6°F-4.7°C 78% 11.0 mph SE17.7 kmh SE 15.0 mph24.1 kmh 30.30 in1026.1 mb 0.00 in0.0 mm 0.00 in/hr0.0 mm/hr 0.00 in0.0 mm
02:47 PM 29.3°F-1.5°C 23.0°F-5.0°C 77% 12.0 mph SE19.3 kmh SE 16.0 mph25.7 kmh 30.29 in1025.7 mb 0.00 in0.0 mm 0.00 in/hr0.0 mm/hr 0.00 in0.0 mm
03:02 PM 29.3°F-1.5°C 23.0°F-5.0°C 77% 12.0 mph SE19.3 kmh SE 16.0 mph25.7 kmh 30.28 in1025.4 mb 0.00 in0.0 mm 0.00 in/hr0.0 mm/hr 0.00 in0.0 mm
03:16 PM 29.5°F-1.4°C 23.5°F-4.7°C 78% 14.0 mph SE22.5 kmh SE 20.0 mph32.2 kmh 30.28 in1025.4 mb 0.00 in0.0 mm 0.00 in/hr0.0 mm/hr 0.00 in0.0 mm
03:31 PM 29.7°F-1.3°C 24.0°F-4.4°C 79% 13.0 mph SE20.9 kmh SE 16.0 mph25.7 kmh 30.27 in1025.1 mb 0.00 in0.0 mm 0.00 in/hr0.0 mm/hr 0.00 in0.0 mm
03:45 PM 29.5°F-1.4°C 24.4°F-4.2°C 81% 13.0 mph SE20.9 kmh SE 17.0 mph27.4 kmh 30.25 in1024.4 mb 0.00 in0.0 mm 0.00 in/hr0.0 mm/hr 0.00 in0.0 mm
04:03 PM 29.6°F-1.3°C 24.2°F-4.3°C 80% 19.0 mph SE30.6 kmh SE 20.0 mph32.2 kmh 30.24 in1024.0 mb 0.00 in0.0 mm 0.00 in/hr0.0 mm/hr 0.00 in0.0 mm
04:16 PM 29.6°F-1.3°C 24.5°F-4.2°C 81% 12.0 mph SE19.3 kmh SE 19.0 mph30.6 kmh 30.24 in1024.0 mb 0.00 in0.0 mm 0.00 in/hr0.0 mm/hr 0.00 in0.0 mm
04:31 PM 29.8°F-1.2°C 24.7°F-4.1°C 81% 17.0 mph SE27.4 kmh SE 21.0 mph33.8 kmh 30.23 in1023.7 mb 0.00 in0.0 mm 0.00 in/hr0.0 mm/hr 0.00 in0.0 mm
04:45 PM 29.9°F-1.2°C 24.8°F-4.0°C 81% 15.0 mph SE24.1 kmh SE 21.0 mph33.8 kmh 30.21 in1023.0 mb 0.00 in0.0 mm 0.00 in/hr0.0 mm/hr 0.00 in0.0 mm
05:00 PM 30.0°F-1.1°C 24.9°F-3.9°C 81% 16.0 mph SE25.7 kmh SE 24.0 mph38.6 kmh 30.20 in1022.7 mb 0.00 in0.0 mm 0.00 in/hr0.0 mm/hr 0.00 in0.0 mm
05:16 PM 30.1°F-1.1°C 25.0°F-3.9°C 81% 18.0 mph ESE29.0 kmh ESE 22.0 mph35.4 kmh 30.18 in1022.0 mb 0.00 in0.0 mm 0.00 in/hr0.0 mm/hr 0.00 in0.0 mm
05:31 PM 30.1°F-1.1°C 25.6°F-3.6°C 83% 20.0 mph SE32.2 kmh SE 24.0 mph38.6 kmh 30.17 in1021.7 mb 0.00 in0.0 mm 0.00 in/hr0.0 mm/hr 0.00 in0.0 mm
05:46 PM 30.2°F-1.0°C 25.7°F-3.5°C 83% 19.0 mph SE30.6 kmh SE 23.0 mph37.0 kmh 30.18 in1022.0 mb 0.00 in0.0 mm 0.00 in/hr0.0 mm/hr 0.00 in0.0 mm
06:03 PM 30.6°F-0.8°C 26.1°F-3.3°C 83% 12.0 mph SSE19.3 kmh SSE 22.0 mph35.4 kmh 30.20 in1022.7 mb 0.00 in0.0 mm 0.00 in/hr0.0 mm/hr 0.00 in0.0 mm
06:16 PM 30.8°F-0.7°C 26.0°F-3.3°C 82% 15.0 mph SSE24.1 kmh SSE 21.0 mph33.8 kmh 30.22 in1023.4 mb 0.00 in0.0 mm 0.00 in/hr0.0 mm/hr 0.00 in0.0 mm
06:31 PM 30.7°F-0.7°C 25.9°F-3.4°C 82% 14.0 mph SSE22.5 kmh SSE 20.0 mph32.2 kmh 30.21 in1023.0 mb 0.00 in0.0 mm 0.00 in/hr0.0 mm/hr 0.00 in0.0 mm
06:46 PM 30.2°F-1.0°C 25.7°F-3.5°C 83% 15.0 mph SE24.1 kmh SE 17.0 mph27.4 kmh 30.21 in1023.0 mb 0.00 in0.0 mm 0.00 in/hr0.0 mm/hr 0.00 in0.0 mm
07:02 PM 30.5°F-0.8°C 26.0°F-3.3°C 83% 16.0 mph SE25.7 kmh SE 20.0 mph32.2 kmh 30.21 in1023.0 mb 0.00 in0.0 mm 0.00 in/hr0.0 mm/hr 0.00 in0.0 mm
07:15 PM 29.9°F-1.2°C 25.4°F-3.7°C 83% 14.0 mph SE22.5 kmh SE 18.0 mph29.0 kmh 30.21 in1023.0 mb 0.00 in0.0 mm 0.00 in/hr0.0 mm/hr 0.00 in0.0 mm
07:31 PM 30.0°F-1.1°C 25.5°F-3.6°C 83% 15.0 mph SE24.1 kmh SE 19.0 mph30.6 kmh 30.20 in1022.7 mb 0.00 in0.0 mm 0.00 in/hr0.0 mm/hr 0.00 in0.0 mm
07:46 PM 29.9°F-1.2°C 25.7°F-3.5°C 84% 15.0 mph SE24.1 kmh SE 20.0 mph32.2 kmh 30.20 in1022.7 mb 0.00 in0.0 mm 0.00 in/hr0.0 mm/hr 0.00 in0.0 mm
08:02 PM 30.2°F-1.0°C 26.0°F-3.3°C 84% 14.0 mph SE22.5 kmh SE 19.0 mph30.6 kmh 30.21 in1023.0 mb 0.00 in0.0 mm 0.00 in/hr0.0 mm/hr 0.00 in0.0 mm
08:16 PM 29.9°F-1.2°C 26.0°F-3.3°C 85% 15.0 mph SE24.1 kmh SE 17.0 mph27.4 kmh 30.19 in1022.4 mb 0.00 in0.0 mm 0.00 in/hr0.0 mm/hr 0.00 in0.0 mm
08:31 PM 29.8°F-1.2°C 26.1°F-3.3°C 86% 13.0 mph SE20.9 kmh SE 17.0 mph27.4 kmh 30.18 in1022.0 mb 0.00 in0.0 mm 0.00 in/hr0.0 mm/hr 0.00 in0.0 mm
08:46 PM 29.8°F-1.2°C 26.1°F-3.3°C 86% 13.0 mph SE20.9 kmh SE 16.0 mph25.7 kmh 30.17 in1021.7 mb 0.00 in0.0 mm 0.00 in/hr0.0 mm/hr 0.00 in0.0 mm
09:02 PM 29.6°F-1.3°C 25.9°F-3.4°C 86% 14.0 mph SE22.5 kmh SE 17.0 mph27.4 kmh 30.16 in1021.3 mb 0.00 in0.0 mm 0.00 in/hr0.0 mm/hr 0.00 in0.0 mm
09:15 PM 29.9°F-1.2°C 26.2°F-3.2°C 86% 15.0 mph SE24.1 kmh SE 18.0 mph29.0 kmh 30.16 in1021.3 mb 0.00 in0.0 mm 0.00 in/hr0.0 mm/hr 0.00 in0.0 mm
09:30 PM 29.7°F-1.3°C 26.0°F-3.3°C 86% 12.0 mph SE19.3 kmh SE 16.0 mph25.7 kmh 30.16 in1021.3 mb 0.00 in0.0 mm 0.00 in/hr0.0 mm/hr 0.00 in0.0 mm
09:45 PM 29.4°F-1.4°C 26.0°F-3.3°C 87% 12.0 mph SE19.3 kmh SE 16.0 mph25.7 kmh 30.16 in1021.3 mb 0.00 in0.0 mm 0.00 in/hr0.0 mm/hr 0.00 in0.0 mm
10:02 PM 29.4°F-1.4°C 26.0°F-3.3°C 87% 12.0 mph SE19.3 kmh SE 16.0 mph25.7 kmh 30.15 in1021.0 mb 0.00 in0.0 mm 0.00 in/hr0.0 mm/hr 0.00 in0.0 mm
10:16 PM 29.4°F-1.4°C 26.0°F-3.3°C 87% 10.0 mph SE16.1 kmh SE 16.0 mph25.7 kmh 30.14 in1020.7 mb 0.00 in0.0 mm 0.00 in/hr0.0 mm/hr 0.00 in0.0 mm
10:31 PM 29.4°F-1.4°C 25.7°F-3.5°C 86% 13.0 mph SE20.9 kmh SE 16.0 mph25.7 kmh 30.14 in1020.7 mb 0.00 in0.0 mm 0.00 in/hr0.0 mm/hr 0.00 in0.0 mm
10:46 PM 29.3°F-1.5°C 25.6°F-3.6°C 86% 14.0 mph SE22.5 kmh SE 15.0 mph24.1 kmh 30.13 in1020.3 mb 0.00 in0.0 mm 0.00 in/hr0.0 mm/hr 0.00 in0.0 mm
11:02 PM 28.9°F-1.7°C 25.5°F-3.6°C 87% 9.0 mph SE14.5 kmh SE 12.0 mph19.3 kmh 30.12 in1020.0 mb 0.00 in0.0 mm 0.00 in/hr0.0 mm/hr 0.00 in0.0 mm
11:16 PM 28.8°F-1.8°C 25.4°F-3.7°C 87% 8.0 mph SE12.9 kmh SE 11.0 mph17.7 kmh 30.11 in1019.6 mb 0.00 in0.0 mm 0.00 in/hr0.0 mm/hr 0.00 in0.0 mm
11:31 PM 30.0°F-1.1°C 26.3°F-3.2°C 86% 9.0 mph SE14.5 kmh SE 13.0 mph20.9 kmh 30.10 in1019.3 mb 0.00 in0.0 mm 0.00 in/hr0.0 mm/hr 0.00 in0.0 mm
11:45 PM 30.6°F-0.8°C 26.4°F-3.1°C 84% 11.0 mph SSE17.7 kmh SSE 13.0 mph20.9 kmh 30.09 in1019.0 mb 0.00 in0.0 mm 0.00 in/hr0.0 mm/hr 0.00 in0.0 mm